sensor_id;sensor_type;location;lat;lon;timestamp;P1;durP1;ratioP1;P2;durP2;ratioP2
77432;SDS011;66752;48.576;8.876;2023-04-01T00:02:06;2.35;;;0.63;;
77432;SDS011;66752;48.576;8.876;2023-04-01T00:04:32;2.70;;;0.65;;
77432;SDS011;66752;48.576;8.876;2023-04-01T00:06:58;2.70;;;0.82;;
77432;SDS011;66752;48.576;8.876;2023-04-01T00:09:25;7.28;;;1.00;;
77432;SDS011;66752;48.576;8.876;2023-04-01T00:11:51;2.45;;;0.55;;
77432;SDS011;66752;48.576;8.876;2023-04-01T00:14:17;3.97;;;0.63;;
77432;SDS011;66752;48.576;8.876;2023-04-01T00:16:43;4.20;;;0.80;;
77432;SDS011;66752;48.576;8.876;2023-04-01T00:19:09;4.50;;;1.02;;
77432;SDS011;66752;48.576;8.876;2023-04-01T00:21:35;3.22;;;0.73;;
77432;SDS011;66752;48.576;8.876;2023-04-01T00:24:02;4.00;;;1.45;;
77432;SDS011;66752;48.576;8.876;2023-04-01T00:26:28;4.75;;;0.95;;
77432;SDS011;66752;48.576;8.876;2023-04-01T00:28:54;4.05;;;0.70;;
77432;SDS011;66752;48.576;8.876;2023-04-01T00:31:20;6.53;;;0.90;;
77432;SDS011;66752;48.576;8.876;2023-04-01T00:33:46;2.72;;;0.80;;
77432;SDS011;66752;48.576;8.876;2023-04-01T00:36:13;5.70;;;0.85;;
77432;SDS011;66752;48.576;8.876;2023-04-01T00:38:40;3.05;;;1.17;;
77432;SDS011;66752;48.576;8.876;2023-04-01T00:41:07;2.55;;;0.55;;
77432;SDS011;66752;48.576;8.876;2023-04-01T00:43:33;4.38;;;0.70;;
77432;SDS011;66752;48.576;8.876;2023-04-01T00:45:59;3.33;;;0.57;;
77432;SDS011;66752;48.576;8.876;2023-04-01T00:48:30;2.88;;;0.70;;
77432;SDS011;66752;48.576;8.876;2023-04-01T00:50:58;3.53;;;0.70;;
77432;SDS011;66752;48.576;8.876;2023-04-01T00:53:25;2.67;;;0.63;;
77432;SDS011;66752;48.576;8.876;2023-04-01T00:55:54;4.47;;;0.98;;
77432;SDS011;66752;48.576;8.876;2023-04-01T00:58:23;6.13;;;0.80;;
77432;SDS011;66752;48.576;8.876;2023-04-01T01:00:50;3.47;;;0.63;;
77432;SDS011;66752;48.576;8.876;2023-04-01T01:08:34;4.88;;;0.70;;
77432;SDS011;66752;48.576;8.876;2023-04-01T01:11:05;2.58;;;0.57;;
77432;SDS011;66752;48.576;8.876;2023-04-01T01:13:36;3.97;;;0.70;;
77432;SDS011;66752;48.576;8.876;2023-04-01T01:18:54;3.13;;;0.77;;
77432;SDS011;66752;48.576;8.876;2023-04-01T01:26:46;1.08;;;0.38;;
77432;SDS011;66752;48.576;8.876;2023-04-01T01:34:40;1.15;;;0.40;;
77432;SDS011;66752;48.576;8.876;2023-04-01T01:37:12;1.27;;;0.47;;
77432;SDS011;66752;48.576;8.876;2023-04-01T01:39:40;2.60;;;0.47;;
77432;SDS011;66752;48.576;8.876;2023-04-01T01:42:08;2.33;;;0.63;;
77432;SDS011;66752;48.576;8.876;2023-04-01T01:44:36;1.08;;;0.40;;
77432;SDS011;66752;48.576;8.876;2023-04-01T01:47:03;2.45;;;0.60;;
77432;SDS011;66752;48.576;8.876;2023-04-01T01:49:29;0.95;;;0.30;;
77432;SDS011;66752;48.576;8.876;2023-04-01T01:51:57;1.05;;;0.35;;
77432;SDS011;66752;48.576;8.876;2023-04-01T01:54:23;6.13;;;0.80;;
77432;SDS011;66752;48.576;8.876;2023-04-01T01:56:50;1.42;;;0.50;;
77432;SDS011;66752;48.576;8.876;2023-04-01T01:59:17;0.68;;;0.15;;
77432;SDS011;66752;48.576;8.876;2023-04-01T02:01:47;0.43;;;0.20;;
77432;SDS011;66752;48.576;8.876;2023-04-01T02:04:14;1.10;;;0.38;;
77432;SDS011;66752;48.576;8.876;2023-04-01T02:09:07;0.32;;;0.10;;
77432;SDS011;66752;48.576;8.876;2023-04-01T02:11:42;0.52;;;0.20;;
77432;SDS011;66752;48.576;8.876;2023-04-01T02:14:10;0.30;;;0.20;;
77432;SDS011;66752;48.576;8.876;2023-04-01T02:16:51;1.73;;;0.40;;
77432;SDS011;66752;48.576;8.876;2023-04-01T02:19:18;1.88;;;0.28;;
77432;SDS011;66752;48.576;8.876;2023-04-01T02:21:51;0.17;;;0.10;;
77432;SDS011;66752;48.576;8.876;2023-04-01T02:24:18;1.60;;;0.55;;
77432;SDS011;66752;48.576;8.876;2023-04-01T02:26:49;0.75;;;0.20;;
77432;SDS011;66752;48.576;8.876;2023-04-01T02:29:16;0.15;;;0.10;;
77432;SDS011;66752;48.576;8.876;2023-04-01T02:31:43;1.45;;;0.47;;
77432;SDS011;66752;48.576;8.876;2023-04-01T02:34:09;1.13;;;0.40;;
77432;SDS011;66752;48.576;8.876;2023-04-01T02:36:36;0.57;;;0.28;;
77432;SDS011;66752;48.576;8.876;2023-04-01T02:39:02;3.08;;;0.75;;
77432;SDS011;66752;48.576;8.876;2023-04-01T02:41:29;2.08;;;0.30;;
77432;SDS011;66752;48.576;8.876;2023-04-01T02:43:55;2.20;;;0.25;;
77432;SDS011;66752;48.576;8.876;2023-04-01T02:46:23;0.88;;;0.20;;
77432;SDS011;66752;48.576;8.876;2023-04-01T02:48:49;0.80;;;0.15;;
77432;SDS011;66752;48.576;8.876;2023-04-01T02:51:15;0.50;;;0.20;;
77432;SDS011;66752;48.576;8.876;2023-04-01T02:53:41;3.03;;;0.40;;
77432;SDS011;66752;48.576;8.876;2023-04-01T02:56:07;1.48;;;0.35;;
77432;SDS011;66752;48.576;8.876;2023-04-01T02:58:33;1.65;;;0.30;;
77432;SDS011;66752;48.576;8.876;2023-04-01T03:00:59;0.45;;;0.22;;
77432;SDS011;66752;48.576;8.876;2023-04-01T03:03:24;2.17;;;0.30;;
77432;SDS011;66752;48.576;8.876;2023-04-01T03:05:50;0.82;;;0.30;;
77432;SDS011;66752;48.576;8.876;2023-04-01T03:08:16;0.10;;;0.10;;
77432;SDS011;66752;48.576;8.876;2023-04-01T03:10:42;0.38;;;0.20;;
77432;SDS011;66752;48.576;8.876;2023-04-01T03:13:08;2.25;;;0.30;;
77432;SDS011;66752;48.576;8.876;2023-04-01T03:15:34;0.52;;;0.15;;
77432;SDS011;66752;48.576;8.876;2023-04-01T03:18:00;0.32;;;0.20;;
77432;SDS011;66752;48.576;8.876;2023-04-01T03:20:28;0.60;;;0.20;;
77432;SDS011;66752;48.576;8.876;2023-04-01T03:22:54;0.55;;;0.20;;
77432;SDS011;66752;48.576;8.876;2023-04-01T03:25:20;1.55;;;0.28;;
77432;SDS011;66752;48.576;8.876;2023-04-01T03:27:46;2.40;;;0.50;;
77432;SDS011;66752;48.576;8.876;2023-04-01T03:30:12;0.28;;;0.28;;
77432;SDS011;66752;48.576;8.876;2023-04-01T03:32:38;0.85;;;0.40;;
77432;SDS011;66752;48.576;8.876;2023-04-01T03:35:04;1.77;;;0.40;;
77432;SDS011;66752;48.576;8.876;2023-04-01T03:37:30;1.98;;;0.55;;
77432;SDS011;66752;48.576;8.876;2023-04-01T03:39:56;1.45;;;0.30;;
77432;SDS011;66752;48.576;8.876;2023-04-01T03:42:22;1.50;;;0.30;;
77432;SDS011;66752;48.576;8.876;2023-04-01T03:44:48;1.10;;;0.30;;
77432;SDS011;66752;48.576;8.876;2023-04-01T03:47:14;1.08;;;0.40;;
77432;SDS011;66752;48.576;8.876;2023-04-01T03:49:40;1.35;;;0.28;;
77432;SDS011;66752;48.576;8.876;2023-04-01T03:52:08;2.00;;;0.35;;
77432;SDS011;66752;48.576;8.876;2023-04-01T03:54:34;1.88;;;0.30;;
77432;SDS011;66752;48.576;8.876;2023-04-01T03:57:00;0.93;;;0.38;;
77432;SDS011;66752;48.576;8.876;2023-04-01T03:59:26;2.53;;;0.73;;
77432;SDS011;66752;48.576;8.876;2023-04-01T04:01:52;2.70;;;0.40;;
77432;SDS011;66752;48.576;8.876;2023-04-01T04:04:18;0.52;;;0.28;;
77432;SDS011;66752;48.576;8.876;2023-04-01T04:06:44;0.65;;;0.30;;
77432;SDS011;66752;48.576;8.876;2023-04-01T04:09:10;2.25;;;0.50;;
77432;SDS011;66752;48.576;8.876;2023-04-01T04:11:36;0.95;;;0.47;;
77432;SDS011;66752;48.576;8.876;2023-04-01T04:14:02;2.75;;;0.55;;
77432;SDS011;66752;48.576;8.876;2023-04-01T04:16:28;1.38;;;0.50;;
77432;SDS011;66752;48.576;8.876;2023-04-01T04:18:54;3.17;;;0.80;;
77432;SDS011;66752;48.576;8.876;2023-04-01T04:21:19;1.70;;;0.40;;
77432;SDS011;66752;48.576;8.876;2023-04-01T04:23:45;2.60;;;0.50;;
77432;SDS011;66752;48.576;8.876;2023-04-01T04:26:12;2.17;;;0.45;;
77432;SDS011;66752;48.576;8.876;2023-04-01T04:28:38;3.35;;;0.50;;
77432;SDS011;66752;48.576;8.876;2023-04-01T04:31:05;1.67;;;0.40;;
77432;SDS011;66752;48.576;8.876;2023-04-01T04:33:31;2.13;;;0.35;;
77432;SDS011;66752;48.576;8.876;2023-04-01T04:35:57;1.60;;;0.40;;
77432;SDS011;66752;48.576;8.876;2023-04-01T04:38:23;3.50;;;0.45;;
77432;SDS011;66752;48.576;8.876;2023-04-01T04:40:49;2.33;;;0.55;;
77432;SDS011;66752;48.576;8.876;2023-04-01T04:43:16;2.28;;;1.02;;
77432;SDS011;66752;48.576;8.876;2023-04-01T04:45:42;2.50;;;0.55;;
77432;SDS011;66752;48.576;8.876;2023-04-01T04:48:08;2.83;;;0.63;;
77432;SDS011;66752;48.576;8.876;2023-04-01T04:53:01;0.75;;;0.30;;
77432;SDS011;66752;48.576;8.876;2023-04-01T04:55:27;3.58;;;0.60;;
77432;SDS011;66752;48.576;8.876;2023-04-01T04:57:53;2.60;;;0.73;;
77432;SDS011;66752;48.576;8.876;2023-04-01T05:00:19;3.25;;;0.50;;
77432;SDS011;66752;48.576;8.876;2023-04-01T05:02:44;4.18;;;0.68;;
77432;SDS011;66752;48.576;8.876;2023-04-01T05:05:10;4.35;;;0.70;;
77432;SDS011;66752;48.576;8.876;2023-04-01T05:07:36;1.63;;;0.50;;
77432;SDS011;66752;48.576;8.876;2023-04-01T05:10:02;1.20;;;0.38;;
77432;SDS011;66752;48.576;8.876;2023-04-01T05:12:29;3.42;;;0.60;;
77432;SDS011;66752;48.576;8.876;2023-04-01T05:14:55;2.28;;;0.70;;
77432;SDS011;66752;48.576;8.876;2023-04-01T05:17:21;2.20;;;0.50;;
77432;SDS011;66752;48.576;8.876;2023-04-01T05:19:47;2.95;;;1.00;;
77432;SDS011;66752;48.576;8.876;2023-04-01T05:22:13;4.75;;;0.68;;
77432;SDS011;66752;48.576;8.876;2023-04-01T05:24:39;5.45;;;0.88;;
77432;SDS011;66752;48.576;8.876;2023-04-01T05:27:05;3.05;;;0.65;;
77432;SDS011;66752;48.576;8.876;2023-04-01T05:29:31;1.75;;;0.77;;
77432;SDS011;66752;48.576;8.876;2023-04-01T05:31:58;1.83;;;0.57;;
77432;SDS011;66752;48.576;8.876;2023-04-01T05:34:24;4.63;;;1.15;;
77432;SDS011;66752;48.576;8.876;2023-04-01T05:36:50;5.25;;;0.90;;
77432;SDS011;66752;48.576;8.876;2023-04-01T05:39:17;3.80;;;0.90;;
77432;SDS011;66752;48.576;8.876;2023-04-01T05:41:43;2.70;;;0.60;;
77432;SDS011;66752;48.576;8.876;2023-04-01T05:44:10;1.52;;;0.50;;
77432;SDS011;66752;48.576;8.876;2023-04-01T05:46:37;3.45;;;0.95;;
77432;SDS011;66752;48.576;8.876;2023-04-01T05:49:03;2.95;;;0.55;;
77432;SDS011;66752;48.576;8.876;2023-04-01T05:51:28;3.45;;;0.70;;
77432;SDS011;66752;48.576;8.876;2023-04-01T05:53:54;2.97;;;1.02;;
77432;SDS011;66752;48.576;8.876;2023-04-01T05:56:20;2.00;;;1.30;;
77432;SDS011;66752;48.576;8.876;2023-04-01T05:58:47;2.20;;;0.45;;
77432;SDS011;66752;48.576;8.876;2023-04-01T06:01:15;3.67;;;0.93;;
77432;SDS011;66752;48.576;8.876;2023-04-01T06:03:41;1.95;;;0.57;;
77432;SDS011;66752;48.576;8.876;2023-04-01T06:06:13;2.88;;;0.73;;
77432;SDS011;66752;48.576;8.876;2023-04-01T06:08:40;2.90;;;0.73;;
77432;SDS011;66752;48.576;8.876;2023-04-01T06:11:16;3.35;;;0.65;;
77432;SDS011;66752;48.576;8.876;2023-04-01T06:16:23;3.20;;;0.55;;
77432;SDS011;66752;48.576;8.876;2023-04-01T06:19:09;2.55;;;0.52;;
77432;SDS011;66752;48.576;8.876;2023-04-01T06:22:04;2.03;;;0.50;;
77432;SDS011;66752;48.576;8.876;2023-04-01T06:24:47;3.47;;;0.40;;
77432;SDS011;66752;48.576;8.876;2023-04-01T06:30:06;3.95;;;0.43;;
77432;SDS011;66752;48.576;8.876;2023-04-01T06:50:54;2.40;;;0.50;;
77432;SDS011;66752;48.576;8.876;2023-04-01T06:55:50;3.35;;;0.70;;
77432;SDS011;66752;48.576;8.876;2023-04-01T06:58:21;0.90;;;0.40;;
77432;SDS011;66752;48.576;8.876;2023-04-01T07:00:49;1.17;;;0.63;;
77432;SDS011;66752;48.576;8.876;2023-04-01T07:03:19;4.35;;;0.88;;
77432;SDS011;66752;48.576;8.876;2023-04-01T07:05:46;3.35;;;0.77;;
77432;SDS011;66752;48.576;8.876;2023-04-01T07:08:13;3.20;;;0.57;;
77432;SDS011;66752;48.576;8.876;2023-04-01T07:10:50;4.50;;;0.85;;
77432;SDS011;66752;48.576;8.876;2023-04-01T07:13:25;4.47;;;1.00;;
77432;SDS011;66752;48.576;8.876;2023-04-01T07:16:07;3.63;;;0.90;;
77432;SDS011;66752;48.576;8.876;2023-04-01T07:18:40;3.45;;;1.00;;
77432;SDS011;66752;48.576;8.876;2023-04-01T07:21:10;3.15;;;0.98;;
77432;SDS011;66752;48.576;8.876;2023-04-01T07:23:42;2.22;;;0.70;;
77432;SDS011;66752;48.576;8.876;2023-04-01T07:26:20;1.23;;;0.38;;
77432;SDS011;66752;48.576;8.876;2023-04-01T07:28:47;2.75;;;1.10;;
77432;SDS011;66752;48.576;8.876;2023-04-01T07:33:50;2.53;;;0.60;;
77432;SDS011;66752;48.576;8.876;2023-04-01T07:38:49;6.70;;;1.15;;
77432;SDS011;66752;48.576;8.876;2023-04-01T07:41:24;2.53;;;0.60;;
77432;SDS011;66752;48.576;8.876;2023-04-01T07:44:01;1.75;;;0.68;;
77432;SDS011;66752;48.576;8.876;2023-04-01T07:46:38;1.85;;;0.60;;
77432;SDS011;66752;48.576;8.876;2023-04-01T07:51:35;5.18;;;0.80;;
77432;SDS011;66752;48.576;8.876;2023-04-01T07:54:10;2.22;;;0.70;;
77432;SDS011;66752;48.576;8.876;2023-04-01T07:56:43;2.60;;;0.80;;
77432;SDS011;66752;48.576;8.876;2023-04-01T08:00:15;5.38;;;1.77;;
77432;SDS011;66752;48.576;8.876;2023-04-01T08:02:15;4.78;;;1.20;;
77432;SDS011;66752;48.576;8.876;2023-04-01T08:07:17;2.45;;;0.80;;
77432;SDS011;66752;48.576;8.876;2023-04-01T08:14:48;3.20;;;1.20;;
77432;SDS011;66752;48.576;8.876;2023-04-01T08:22:42;5.53;;;1.50;;
77432;SDS011;66752;48.576;8.876;2023-04-01T08:25:09;5.88;;;2.08;;
77432;SDS011;66752;48.576;8.876;2023-04-01T08:28:19;3.10;;;1.10;;
77432;SDS011;66752;48.576;8.876;2023-04-01T08:30:26;4.35;;;1.38;;
77432;SDS011;66752;48.576;8.876;2023-04-01T08:32:57;3.47;;;1.10;;
77432;SDS011;66752;48.576;8.876;2023-04-01T08:35:36;4.13;;;1.15;;
77432;SDS011;66752;48.576;8.876;2023-04-01T08:38:10;4.97;;;1.05;;
77432;SDS011;66752;48.576;8.876;2023-04-01T08:45:31;5.53;;;1.75;;
77432;SDS011;66752;48.576;8.876;2023-04-01T08:56:18;1.88;;;0.63;;
77432;SDS011;66752;48.576;8.876;2023-04-01T08:59:02;1.98;;;0.60;;
77432;SDS011;66752;48.576;8.876;2023-04-01T09:01:42;3.88;;;1.27;;
77432;SDS011;66752;48.576;8.876;2023-04-01T09:25:00;2.45;;;0.90;;
77432;SDS011;66752;48.576;8.876;2023-04-01T09:27:29;1.85;;;0.70;;
77432;SDS011;66752;48.576;8.876;2023-04-01T09:35:36;2.20;;;0.60;;
77432;SDS011;66752;48.576;8.876;2023-04-01T09:56:21;2.47;;;0.82;;
77432;SDS011;66752;48.576;8.876;2023-04-01T10:19:55;4.13;;;1.63;;
77432;SDS011;66752;48.576;8.876;2023-04-01T10:25:07;4.82;;;1.90;;
77432;SDS011;66752;48.576;8.876;2023-04-01T10:35:18;2.88;;;0.90;;
77432;SDS011;66752;48.576;8.876;2023-04-01T10:43:05;1.63;;;0.57;;
77432;SDS011;66752;48.576;8.876;2023-04-01T10:53:15;1.52;;;0.60;;
77432;SDS011;66752;48.576;8.876;2023-04-01T11:03:26;2.35;;;0.77;;
77432;SDS011;66752;48.576;8.876;2023-04-01T11:08:52;2.55;;;1.10;;
77432;SDS011;66752;48.576;8.876;2023-04-01T11:19:32;4.18;;;1.40;;
77432;SDS011;66752;48.576;8.876;2023-04-01T11:29:36;5.18;;;1.50;;
77432;SDS011;66752;48.576;8.876;2023-04-01T11:37:10;1.27;;;0.50;;
77432;SDS011;66752;48.576;8.876;2023-04-01T11:44:38;10.10;;;3.75;;
77432;SDS011;66752;48.576;8.876;2023-04-01T11:47:12;3.50;;;1.55;;
77432;SDS011;66752;48.576;8.876;2023-04-01T11:49:46;2.53;;;0.90;;
77432;SDS011;66752;48.576;8.876;2023-04-01T12:00:00;3.53;;;1.35;;
77432;SDS011;66752;48.576;8.876;2023-04-01T12:17:39;2.45;;;0.90;;
77432;SDS011;66752;48.576;8.876;2023-04-01T12:28:25;1.90;;;0.60;;
77432;SDS011;66752;48.576;8.876;2023-04-01T12:30:59;1.58;;;0.50;;
77432;SDS011;66752;48.576;8.876;2023-04-01T12:33:35;1.55;;;0.50;;
77432;SDS011;66752;48.576;8.876;2023-04-01T12:56:54;1.45;;;0.43;;
77432;SDS011;66752;48.576;8.876;2023-04-01T13:02:04;2.00;;;0.75;;
77432;SDS011;66752;48.576;8.876;2023-04-01T13:12:21;1.63;;;0.57;;
77432;SDS011;66752;48.576;8.876;2023-04-01T13:17:48;1.65;;;0.63;;
77432;SDS011;66752;48.576;8.876;2023-04-01T13:20:18;1.60;;;0.63;;
77432;SDS011;66752;48.576;8.876;2023-04-01T13:22:57;1.30;;;0.52;;
77432;SDS011;66752;48.576;8.876;2023-04-01T13:27:56;3.42;;;1.10;;
77432;SDS011;66752;48.576;8.876;2023-04-01T13:30:25;1.75;;;0.80;;
77432;SDS011;66752;48.576;8.876;2023-04-01T13:33:04;1.48;;;0.50;;
77432;SDS011;66752;48.576;8.876;2023-04-01T13:38:46;1.45;;;0.45;;
77432;SDS011;66752;48.576;8.876;2023-04-01T13:43:45;1.33;;;0.32;;
77432;SDS011;66752;48.576;8.876;2023-04-01T13:53:46;2.28;;;0.65;;
77432;SDS011;66752;48.576;8.876;2023-04-01T14:01:25;1.48;;;0.40;;
77432;SDS011;66752;48.576;8.876;2023-04-01T14:04:01;2.45;;;0.90;;
77432;SDS011;66752;48.576;8.876;2023-04-01T14:11:45;3.70;;;1.08;;
77432;SDS011;66752;48.576;8.876;2023-04-01T14:17:01;2.55;;;0.90;;
77432;SDS011;66752;48.576;8.876;2023-04-01T14:32:39;2.47;;;0.80;;
77432;SDS011;66752;48.576;8.876;2023-04-01T14:48:17;3.40;;;1.40;;
77432;SDS011;66752;48.576;8.876;2023-04-01T14:50:46;2.42;;;0.73;;
77432;SDS011;66752;48.576;8.876;2023-04-01T14:58:10;3.08;;;1.17;;
77432;SDS011;66752;48.576;8.876;2023-04-01T15:00:40;4.25;;;1.42;;
77432;SDS011;66752;48.576;8.876;2023-04-01T15:03:14;5.10;;;1.55;;
77432;SDS011;66752;48.576;8.876;2023-04-01T15:06:11;6.28;;;2.28;;
77432;SDS011;66752;48.576;8.876;2023-04-01T15:11:21;1.55;;;0.70;;
77432;SDS011;66752;48.576;8.876;2023-04-01T15:13:55;2.33;;;0.80;;
77432;SDS011;66752;48.576;8.876;2023-04-01T15:21:49;1.48;;;0.50;;
77432;SDS011;66752;48.576;8.876;2023-04-01T15:24:34;2.70;;;0.95;;
77432;SDS011;66752;48.576;8.876;2023-04-01T15:27:15;1.83;;;0.65;;
77432;SDS011;66752;48.576;8.876;2023-04-01T15:32:23;2.42;;;0.60;;
77432;SDS011;66752;48.576;8.876;2023-04-01T15:35:03;1.88;;;0.52;;
77432;SDS011;66752;48.576;8.876;2023-04-01T15:40:11;1.48;;;0.63;;
77432;SDS011;66752;48.576;8.876;2023-04-01T15:42:55;2.70;;;1.00;;
77432;SDS011;66752;48.576;8.876;2023-04-01T15:47:58;8.45;;;2.92;;
77432;SDS011;66752;48.576;8.876;2023-04-01T15:52:57;5.72;;;2.08;;
77432;SDS011;66752;48.576;8.876;2023-04-01T15:55:42;4.47;;;1.10;;
77432;SDS011;66752;48.576;8.876;2023-04-01T16:01:02;3.25;;;1.10;;
77432;SDS011;66752;48.576;8.876;2023-04-01T16:03:52;3.58;;;1.50;;
77432;SDS011;66752;48.576;8.876;2023-04-01T16:22:08;3.88;;;1.45;;
77432;SDS011;66752;48.576;8.876;2023-04-01T16:27:39;3.13;;;0.90;;
77432;SDS011;66752;48.576;8.876;2023-04-01T16:33:38;5.60;;;1.33;;
77432;SDS011;66752;48.576;8.876;2023-04-01T16:38:26;3.88;;;1.55;;
77432;SDS011;66752;48.576;8.876;2023-04-01T16:41:05;4.15;;;0.77;;
77432;SDS011;66752;48.576;8.876;2023-04-01T16:48:59;3.63;;;1.38;;
77432;SDS011;66752;48.576;8.876;2023-04-01T16:56:24;2.97;;;0.73;;
77432;SDS011;66752;48.576;8.876;2023-04-01T17:01:26;1.55;;;0.60;;
77432;SDS011;66752;48.576;8.876;2023-04-01T17:03:53;2.70;;;0.73;;
77432;SDS011;66752;48.576;8.876;2023-04-01T17:11:19;3.38;;;0.82;;
77432;SDS011;66752;48.576;8.876;2023-04-01T17:14:13;3.08;;;1.02;;
77432;SDS011;66752;48.576;8.876;2023-04-01T17:16:56;4.40;;;1.38;;
77432;SDS011;66752;48.576;8.876;2023-04-01T17:24:51;12.43;;;4.28;;
77432;SDS011;66752;48.576;8.876;2023-04-01T17:27:23;6.65;;;1.98;;
77432;SDS011;66752;48.576;8.876;2023-04-01T17:37:41;2.88;;;1.10;;
77432;SDS011;66752;48.576;8.876;2023-04-01T17:40:21;2.03;;;0.73;;
77432;SDS011;66752;48.576;8.876;2023-04-01T17:45:32;4.00;;;1.05;;
77432;SDS011;66752;48.576;8.876;2023-04-01T17:51:00;4.72;;;1.40;;
77432;SDS011;66752;48.576;8.876;2023-04-01T17:53:36;13.02;;;3.40;;
77432;SDS011;66752;48.576;8.876;2023-04-01T17:56:15;2.72;;;1.10;;
77432;SDS011;66752;48.576;8.876;2023-04-01T17:58:49;5.53;;;2.42;;
77432;SDS011;66752;48.576;8.876;2023-04-01T18:04:07;9.15;;;2.28;;
77432;SDS011;66752;48.576;8.876;2023-04-01T18:22:41;4.28;;;2.42;;
77432;SDS011;66752;48.576;8.876;2023-04-01T18:25:17;6.20;;;2.97;;
77432;SDS011;66752;48.576;8.876;2023-04-01T18:28:32;6.25;;;2.50;;
77432;SDS011;66752;48.576;8.876;2023-04-01T18:30:34;5.95;;;2.50;;
77432;SDS011;66752;48.576;8.876;2023-04-01T18:40:39;3.60;;;1.30;;
77432;SDS011;66752;48.576;8.876;2023-04-01T18:43:09;3.15;;;1.27;;
77432;SDS011;66752;48.576;8.876;2023-04-01T18:45:37;3.30;;;1.20;;
77432;SDS011;66752;48.576;8.876;2023-04-01T18:56:05;3.20;;;1.20;;
77432;SDS011;66752;48.576;8.876;2023-04-01T19:01:39;3.95;;;1.77;;
77432;SDS011;66752;48.576;8.876;2023-04-01T19:11:52;6.45;;;2.60;;
77432;SDS011;66752;48.576;8.876;2023-04-01T19:17:03;8.57;;;3.42;;
77432;SDS011;66752;48.576;8.876;2023-04-01T19:22:21;7.00;;;2.08;;
77432;SDS011;66752;48.576;8.876;2023-04-01T19:25:02;4.65;;;1.95;;
77432;SDS011;66752;48.576;8.876;2023-04-01T19:27:42;5.22;;;1.90;;
77432;SDS011;66752;48.576;8.876;2023-04-01T19:35:42;3.78;;;1.60;;
77432;SDS011;66752;48.576;8.876;2023-04-01T19:40:45;3.58;;;1.20;;
77432;SDS011;66752;48.576;8.876;2023-04-01T19:50:57;11.13;;;5.53;;
77432;SDS011;66752;48.576;8.876;2023-04-01T19:55:57;9.98;;;5.18;;
77432;SDS011;66752;48.576;8.876;2023-04-01T19:58:32;9.13;;;4.75;;
77432;SDS011;66752;48.576;8.876;2023-04-01T20:00:59;12.60;;;6.10;;
77432;SDS011;66752;48.576;8.876;2023-04-01T20:16:37;8.50;;;4.40;;
77432;SDS011;66752;48.576;8.876;2023-04-01T20:19:06;6.43;;;3.42;;
77432;SDS011;66752;48.576;8.876;2023-04-01T20:21:41;8.55;;;4.20;;
77432;SDS011;66752;48.576;8.876;2023-04-01T20:24:15;9.38;;;6.72;;
77432;SDS011;66752;48.576;8.876;2023-04-01T20:26:43;10.63;;;5.47;;
77432;SDS011;66752;48.576;8.876;2023-04-01T20:29:27;8.55;;;5.68;;
77432;SDS011;66752;48.576;8.876;2023-04-01T20:32:41;13.40;;;7.63;;
77432;SDS011;66752;48.576;8.876;2023-04-01T20:34:50;7.78;;;4.03;;
77432;SDS011;66752;48.576;8.876;2023-04-01T20:37:42;7.88;;;2.88;;
77432;SDS011;66752;48.576;8.876;2023-04-01T20:45:22;9.68;;;4.60;;
77432;SDS011;66752;48.576;8.876;2023-04-01T20:50:41;9.57;;;4.80;;
77432;SDS011;66752;48.576;8.876;2023-04-01T21:05:59;3.60;;;1.38;;
77432;SDS011;66752;48.576;8.876;2023-04-01T21:13:36;3.28;;;1.25;;
77432;SDS011;66752;48.576;8.876;2023-04-01T21:21:26;5.03;;;1.50;;
77432;SDS011;66752;48.576;8.876;2023-04-01T21:26:43;4.25;;;1.60;;
77432;SDS011;66752;48.576;8.876;2023-04-01T21:44:53;3.33;;;1.30;;
77432;SDS011;66752;48.576;8.876;2023-04-01T21:47:28;1.90;;;0.82;;
77432;SDS011;66752;48.576;8.876;2023-04-01T22:05:07;21.65;;;7.30;;
77432;SDS011;66752;48.576;8.876;2023-04-01T22:07:41;11.27;;;3.95;;
77432;SDS011;66752;48.576;8.876;2023-04-01T22:12:54;5.13;;;2.15;;
77432;SDS011;66752;48.576;8.876;2023-04-01T22:18:09;2.78;;;0.80;;
77432;SDS011;66752;48.576;8.876;2023-04-01T22:31:09;1.70;;;0.45;;
77432;SDS011;66752;48.576;8.876;2023-04-01T22:36:06;1.25;;;0.47;;
77432;SDS011;66752;48.576;8.876;2023-04-01T22:43:47;2.15;;;0.68;;
77432;SDS011;66752;48.576;8.876;2023-04-01T22:49:06;2.25;;;0.73;;
77432;SDS011;66752;48.576;8.876;2023-04-01T22:54:29;2.03;;;0.82;;
77432;SDS011;66752;48.576;8.876;2023-04-01T22:59:50;2.08;;;0.70;;
77432;SDS011;66752;48.576;8.876;2023-04-01T23:02:20;0.80;;;0.50;;
77432;SDS011;66752;48.576;8.876;2023-04-01T23:04:48;4.20;;;0.82;;
77432;SDS011;66752;48.576;8.876;2023-04-01T23:07:26;2.17;;;0.60;;
77432;SDS011;66752;48.576;8.876;2023-04-01T23:09:55;1.80;;;0.50;;
77432;SDS011;66752;48.576;8.876;2023-04-01T23:12:22;1.50;;;0.47;;
77432;SDS011;66752;48.576;8.876;2023-04-01T23:14:52;1.95;;;0.63;;
77432;SDS011;66752;48.576;8.876;2023-04-01T23:17:24;3.25;;;0.75;;
77432;SDS011;66752;48.576;8.876;2023-04-01T23:25:30;2.15;;;0.80;;
77432;SDS011;66752;48.576;8.876;2023-04-01T23:35:51;3.45;;;1.00;;
77432;SDS011;66752;48.576;8.876;2023-04-01T23:38:18;2.90;;;1.00;;
77432;SDS011;66752;48.576;8.876;2023-04-01T23:40:46;3.33;;;1.10;;
77432;SDS011;66752;48.576;8.876;2023-04-01T23:43:14;2.35;;;0.90;;
77432;SDS011;66752;48.576;8.876;2023-04-01T23:45:41;2.63;;;0.77;;
77432;SDS011;66752;48.576;8.876;2023-04-01T23:48:10;2.88;;;0.73;;
77432;SDS011;66752;48.576;8.876;2023-04-01T23:50:36;1.35;;;0.60;;
77432;SDS011;66752;48.576;8.876;2023-04-01T23:53:04;1.95;;;0.73;;
77432;SDS011;66752;48.576;8.876;2023-04-01T23:55:34;2.13;;;0.63;;
77432;SDS011;66752;48.576;8.876;2023-04-01T23:58:02;2.42;;;0.80;;
